sensor_id;sensor_type;location;lat;lon;timestamp;pressure;altitude;pressure_sealevel;temperature;humidity
13387;BME280;6763;48.524;9.044;2023-05-23T00:01:35;97631.88;;;19.85;61.60
13387;BME280;6763;48.524;9.044;2023-05-23T00:04:02;97631.13;;;19.83;61.46
13387;BME280;6763;48.524;9.044;2023-05-23T00:06:27;97627.88;;;19.79;61.56
13387;BME280;6763;48.524;9.044;2023-05-23T00:08:53;97630.56;;;19.77;61.39
13387;BME280;6763;48.524;9.044;2023-05-23T00:11:18;97636.66;;;19.78;61.41
13387;BME280;6763;48.524;9.044;2023-05-23T00:13:44;97636.66;;;19.78;61.60
13387;BME280;6763;48.524;9.044;2023-05-23T00:16:10;97634.97;;;19.77;61.48
13387;BME280;6763;48.524;9.044;2023-05-23T00:18:36;97647.16;;;19.78;61.56
13387;BME280;6763;48.524;9.044;2023-05-23T00:21:02;97644.53;;;19.78;61.50
13387;BME280;6763;48.524;9.044;2023-05-23T00:23:28;97643.53;;;19.80;61.71
13387;BME280;6763;48.524;9.044;2023-05-23T00:25:54;97653.75;;;19.85;61.61
13387;BME280;6763;48.524;9.044;2023-05-23T00:28:20;97645.53;;;19.91;61.72
13387;BME280;6763;48.524;9.044;2023-05-23T00:30:46;97648.84;;;19.95;61.14
13387;BME280;6763;48.524;9.044;2023-05-23T00:33:14;97644.34;;;19.97;61.54
13387;BME280;6763;48.524;9.044;2023-05-23T00:35:40;97646.78;;;20.00;61.29
13387;BME280;6763;48.524;9.044;2023-05-23T00:38:06;97644.81;;;20.03;61.23
13387;BME280;6763;48.524;9.044;2023-05-23T00:40:32;97646.41;;;20.06;61.31
13387;BME280;6763;48.524;9.044;2023-05-23T00:42:58;97648.88;;;20.09;61.49
13387;BME280;6763;48.524;9.044;2023-05-23T00:45:24;97652.16;;;20.12;61.47
13387;BME280;6763;48.524;9.044;2023-05-23T00:47:49;97649.38;;;20.15;61.60
13387;BME280;6763;48.524;9.044;2023-05-23T00:50:17;97646.44;;;20.20;61.33
13387;BME280;6763;48.524;9.044;2023-05-23T00:52:44;97640.94;;;20.24;61.25
13387;BME280;6763;48.524;9.044;2023-05-23T00:55:10;97642.66;;;20.25;61.37
13387;BME280;6763;48.524;9.044;2023-05-23T00:57:37;97645.06;;;20.28;61.41
13387;BME280;6763;48.524;9.044;2023-05-23T01:00:08;97653.72;;;20.30;61.33
13387;BME280;6763;48.524;9.044;2023-05-23T01:02:36;97659.63;;;20.34;61.28
13387;BME280;6763;48.524;9.044;2023-05-23T01:05:06;97660.41;;;20.36;61.31
13387;BME280;6763;48.524;9.044;2023-05-23T01:07:31;97657.56;;;20.39;61.13
13387;BME280;6763;48.524;9.044;2023-05-23T01:09:56;97661.16;;;20.38;61.06
13387;BME280;6763;48.524;9.044;2023-05-23T01:12:38;97664.16;;;20.32;60.84
13387;BME280;6763;48.524;9.044;2023-05-23T01:15:12;97654.66;;;20.29;61.27
13387;BME280;6763;48.524;9.044;2023-05-23T01:17:50;97660.09;;;20.26;61.02
13387;BME280;6763;48.524;9.044;2023-05-23T01:20:25;97655.78;;;20.25;61.20
13387;BME280;6763;48.524;9.044;2023-05-23T01:28:20;97657.56;;;20.25;61.04
13387;BME280;6763;48.524;9.044;2023-05-23T01:30:51;97660.84;;;20.28;61.28
13387;BME280;6763;48.524;9.044;2023-05-23T01:33:17;97659.84;;;20.31;61.05
13387;BME280;6763;48.524;9.044;2023-05-23T01:35:44;97658.88;;;20.32;61.04
13387;BME280;6763;48.524;9.044;2023-05-23T01:38:10;97657.97;;;20.33;61.10
13387;BME280;6763;48.524;9.044;2023-05-23T01:40:36;97656.84;;;20.37;61.04
13387;BME280;6763;48.524;9.044;2023-05-23T01:43:01;97657.50;;;20.40;61.04
13387;BME280;6763;48.524;9.044;2023-05-23T01:45:28;97654.59;;;20.45;61.00
13387;BME280;6763;48.524;9.044;2023-05-23T01:47:54;97651.78;;;20.48;60.83
13387;BME280;6763;48.524;9.044;2023-05-23T01:50:21;97663.91;;;20.51;60.94
13387;BME280;6763;48.524;9.044;2023-05-23T01:52:47;97669.34;;;20.48;60.91
13387;BME280;6763;48.524;9.044;2023-05-23T01:55:15;97667.56;;;20.48;60.73
13387;BME280;6763;48.524;9.044;2023-05-23T01:57:45;97666.88;;;20.45;60.88
13387;BME280;6763;48.524;9.044;2023-05-23T02:00:13;97669.63;;;20.43;61.10
13387;BME280;6763;48.524;9.044;2023-05-23T02:02:40;97667.84;;;20.44;61.12
13387;BME280;6763;48.524;9.044;2023-05-23T02:05:13;97658.16;;;20.44;60.85
13387;BME280;6763;48.524;9.044;2023-05-23T02:07:38;97663.63;;;20.41;60.75
13387;BME280;6763;48.524;9.044;2023-05-23T02:10:07;97658.59;;;20.36;61.07
13387;BME280;6763;48.524;9.044;2023-05-23T02:12:32;97659.00;;;20.30;60.93
13387;BME280;6763;48.524;9.044;2023-05-23T02:14:57;97664.50;;;20.26;61.00
13387;BME280;6763;48.524;9.044;2023-05-23T02:17:23;97670.72;;;20.25;61.06
13387;BME280;6763;48.524;9.044;2023-05-23T02:19:48;97664.50;;;20.26;61.00
13387;BME280;6763;48.524;9.044;2023-05-23T02:22:22;97663.47;;;20.28;61.07
13387;BME280;6763;48.524;9.044;2023-05-23T02:24:49;97661.78;;;20.27;61.04
13387;BME280;6763;48.524;9.044;2023-05-23T02:27:14;97661.97;;;20.24;61.09
13387;BME280;6763;48.524;9.044;2023-05-23T02:29:40;97666.44;;;20.22;61.18
13387;BME280;6763;48.524;9.044;2023-05-23T02:32:07;97664.75;;;20.21;61.11
13387;BME280;6763;48.524;9.044;2023-05-23T02:34:32;97658.63;;;20.21;61.01
13387;BME280;6763;48.524;9.044;2023-05-23T02:36:58;97669.88;;;20.24;61.17
13387;BME280;6763;48.524;9.044;2023-05-23T02:39:23;97662.72;;;20.26;61.11
13387;BME280;6763;48.524;9.044;2023-05-23T02:41:48;97668.72;;;20.28;61.09
13387;BME280;6763;48.524;9.044;2023-05-23T02:44:14;97665.28;;;20.28;61.07
13387;BME280;6763;48.524;9.044;2023-05-23T02:46:39;97662.81;;;20.25;61.05
13387;BME280;6763;48.524;9.044;2023-05-23T02:49:12;97669.00;;;20.24;61.08
13387;BME280;6763;48.524;9.044;2023-05-23T03:05:21;97670.69;;;19.95;61.11
13387;BME280;6763;48.524;9.044;2023-05-23T03:15:46;97673.56;;;19.91;61.35
13387;BME280;6763;48.524;9.044;2023-05-23T03:18:12;97665.59;;;19.92;61.51
13387;BME280;6763;48.524;9.044;2023-05-23T03:20:37;97672.28;;;19.98;61.33
13387;BME280;6763;48.524;9.044;2023-05-23T03:23:03;97675.69;;;20.00;61.34
13387;BME280;6763;48.524;9.044;2023-05-23T03:25:28;97679.91;;;20.02;61.33
13387;BME280;6763;48.524;9.044;2023-05-23T03:27:53;97680.66;;;20.04;61.36
13387;BME280;6763;48.524;9.044;2023-05-23T03:30:19;97679.72;;;20.05;61.44
13387;BME280;6763;48.524;9.044;2023-05-23T03:32:44;97673.63;;;20.05;61.32
13387;BME280;6763;48.524;9.044;2023-05-23T03:35:10;97678.69;;;20.08;61.31
13387;BME280;6763;48.524;9.044;2023-05-23T03:37:36;97682.09;;;20.10;61.34
13387;BME280;6763;48.524;9.044;2023-05-23T03:40:01;97684.63;;;20.11;61.22
13387;BME280;6763;48.524;9.044;2023-05-23T03:42:29;97680.03;;;20.15;61.22
13387;BME280;6763;48.524;9.044;2023-05-23T03:44:55;97682.56;;;20.16;61.29
13387;BME280;6763;48.524;9.044;2023-05-23T03:47:21;97677.13;;;20.19;61.12
13387;BME280;6763;48.524;9.044;2023-05-23T03:49:48;97676.97;;;20.22;61.10
13387;BME280;6763;48.524;9.044;2023-05-23T03:52:14;97689.69;;;20.30;61.02
13387;BME280;6763;48.524;9.044;2023-05-23T03:54:39;97692.88;;;20.35;61.14
13387;BME280;6763;48.524;9.044;2023-05-23T03:57:05;97687.34;;;20.39;60.76
13387;BME280;6763;48.524;9.044;2023-05-23T03:59:31;97684.44;;;20.44;60.63
13387;BME280;6763;48.524;9.044;2023-05-23T04:01:56;97684.25;;;20.47;60.65
13387;BME280;6763;48.524;9.044;2023-05-23T04:04:23;97685.13;;;20.48;60.45
13387;BME280;6763;48.524;9.044;2023-05-23T04:06:49;97678.94;;;20.49;60.63
13387;BME280;6763;48.524;9.044;2023-05-23T04:09:15;97679.56;;;20.52;60.53
13387;BME280;6763;48.524;9.044;2023-05-23T04:11:40;97680.44;;;20.53;60.51
13387;BME280;6763;48.524;9.044;2023-05-23T04:14:06;97672.34;;;20.56;60.57
13387;BME280;6763;48.524;9.044;2023-05-23T04:16:36;97673.94;;;20.58;60.41
13387;BME280;6763;48.524;9.044;2023-05-23T04:19:05;97683.53;;;20.59;60.29
13387;BME280;6763;48.524;9.044;2023-05-23T04:21:39;97680.72;;;20.62;60.36
13387;BME280;6763;48.524;9.044;2023-05-23T04:24:05;97676.28;;;20.63;60.29
13387;BME280;6763;48.524;9.044;2023-05-23T04:26:30;97680.44;;;20.67;60.42
13387;BME280;6763;48.524;9.044;2023-05-23T04:28:57;97683.72;;;20.70;60.20
13387;BME280;6763;48.524;9.044;2023-05-23T04:31:24;97679.13;;;20.74;60.42
13387;BME280;6763;48.524;9.044;2023-05-23T04:33:49;97687.47;;;20.80;60.22
13387;BME280;6763;48.524;9.044;2023-05-23T04:36:15;97690.69;;;20.85;60.17
13387;BME280;6763;48.524;9.044;2023-05-23T04:38:42;97690.31;;;20.91;59.95
13387;BME280;6763;48.524;9.044;2023-05-23T04:41:07;97703.19;;;20.96;60.00
13387;BME280;6763;48.524;9.044;2023-05-23T04:43:36;97695.03;;;21.00;59.95
13387;BME280;6763;48.524;9.044;2023-05-23T04:46:08;97702.63;;;21.05;59.80
13387;BME280;6763;48.524;9.044;2023-05-23T04:48:34;97689.31;;;21.08;59.79
13387;BME280;6763;48.524;9.044;2023-05-23T04:51:01;97697.84;;;21.12;59.69
13387;BME280;6763;48.524;9.044;2023-05-23T04:53:31;97701.25;;;21.14;59.51
13387;BME280;6763;48.524;9.044;2023-05-23T04:55:56;97703.97;;;21.12;59.21
13387;BME280;6763;48.524;9.044;2023-05-23T04:58:21;97697.03;;;21.11;59.22
13387;BME280;6763;48.524;9.044;2023-05-23T05:00:47;97703.97;;;21.12;59.26
13387;BME280;6763;48.524;9.044;2023-05-23T05:03:12;97708.28;;;21.13;59.38
13387;BME280;6763;48.524;9.044;2023-05-23T05:05:37;97708.19;;;21.15;59.33
13387;BME280;6763;48.524;9.044;2023-05-23T05:08:03;97707.94;;;21.19;59.32
13387;BME280;6763;48.524;9.044;2023-05-23T05:10:28;97711.19;;;21.23;59.13
13387;BME280;6763;48.524;9.044;2023-05-23T05:12:53;97711.00;;;21.26;59.13
13387;BME280;6763;48.524;9.044;2023-05-23T05:15:19;97715.22;;;21.28;59.02
13387;BME280;6763;48.524;9.044;2023-05-23T05:17:44;97719.56;;;21.29;58.94
13387;BME280;6763;48.524;9.044;2023-05-23T05:20:10;97716.81;;;21.31;58.89
13387;BME280;6763;48.524;9.044;2023-05-23T05:22:36;97720.31;;;21.31;58.91
13387;BME280;6763;48.524;9.044;2023-05-23T05:25:05;97722.75;;;21.34;58.99
13387;BME280;6763;48.524;9.044;2023-05-23T05:27:31;97719.81;;;21.39;59.07
13387;BME280;6763;48.524;9.044;2023-05-23T05:29:56;97713.97;;;21.48;58.92
13387;BME280;6763;48.524;9.044;2023-05-23T05:32:27;97717.94;;;21.55;59.00
13387;BME280;6763;48.524;9.044;2023-05-23T05:34:53;97713.00;;;21.63;59.02
13387;BME280;6763;48.524;9.044;2023-05-23T05:37:18;97723.06;;;21.71;58.78
13387;BME280;6763;48.524;9.044;2023-05-23T05:39:43;97721.81;;;21.76;58.43
13387;BME280;6763;48.524;9.044;2023-05-23T05:42:09;97723.19;;;21.82;58.76
13387;BME280;6763;48.524;9.044;2023-05-23T05:44:34;97719.28;;;21.89;58.71
13387;BME280;6763;48.524;9.044;2023-05-23T05:46:59;97723.06;;;21.97;58.48
13387;BME280;6763;48.524;9.044;2023-05-23T05:49:25;97723.16;;;22.10;58.54
13387;BME280;6763;48.524;9.044;2023-05-23T05:51:50;97718.72;;;22.23;58.11
13387;BME280;6763;48.524;9.044;2023-05-23T05:54:15;97727.81;;;22.32;57.93
13387;BME280;6763;48.524;9.044;2023-05-23T05:56:41;97730.06;;;22.38;57.74
13387;BME280;6763;48.524;9.044;2023-05-23T05:59:06;97730.41;;;22.46;57.83
13387;BME280;6763;48.524;9.044;2023-05-23T06:01:32;97727.97;;;22.55;57.85
13387;BME280;6763;48.524;9.044;2023-05-23T06:03:59;97729.00;;;22.67;57.69
13387;BME280;6763;48.524;9.044;2023-05-23T06:06:24;97723.19;;;22.74;57.33
13387;BME280;6763;48.524;9.044;2023-05-23T06:08:49;97728.22;;;22.77;57.00
13387;BME280;6763;48.524;9.044;2023-05-23T06:11:15;97733.50;;;22.77;56.42
13387;BME280;6763;48.524;9.044;2023-05-23T06:13:40;97736.16;;;22.77;56.15
13387;BME280;6763;48.524;9.044;2023-05-23T06:16:05;97741.22;;;22.80;56.09
13387;BME280;6763;48.524;9.044;2023-05-23T06:18:31;97739.34;;;22.82;55.96
13387;BME280;6763;48.524;9.044;2023-05-23T06:20:56;97734.59;;;22.88;55.63
13387;BME280;6763;48.524;9.044;2023-05-23T06:23:22;97740.28;;;22.94;55.68
13387;BME280;6763;48.524;9.044;2023-05-23T06:25:47;97735.00;;;23.07;55.30
13387;BME280;6763;48.524;9.044;2023-05-23T06:28:12;97734.25;;;23.17;54.58
13387;BME280;6763;48.524;9.044;2023-05-23T06:30:38;97729.06;;;23.28;54.27
13387;BME280;6763;48.524;9.044;2023-05-23T06:33:03;97740.47;;;23.41;54.40
13387;BME280;6763;48.524;9.044;2023-05-23T06:35:29;97738.44;;;23.58;54.21
13387;BME280;6763;48.524;9.044;2023-05-23T06:37:54;97746.00;;;23.75;53.41
13387;BME280;6763;48.524;9.044;2023-05-23T06:40:20;97738.16;;;23.86;52.40
13387;BME280;6763;48.524;9.044;2023-05-23T06:42:45;97743.22;;;23.89;52.00
13387;BME280;6763;48.524;9.044;2023-05-23T06:45:10;97740.09;;;23.95;51.81
13387;BME280;6763;48.524;9.044;2023-05-23T06:47:36;97738.81;;;24.00;51.54
13387;BME280;6763;48.524;9.044;2023-05-23T06:50:02;97748.22;;;24.04;51.29
13387;BME280;6763;48.524;9.044;2023-05-23T06:52:27;97742.69;;;24.07;50.96
13387;BME280;6763;48.524;9.044;2023-05-23T06:54:53;97746.22;;;24.08;51.03
13387;BME280;6763;48.524;9.044;2023-05-23T06:57:18;97749.50;;;24.12;50.74
13387;BME280;6763;48.524;9.044;2023-05-23T06:59:43;97758.88;;;24.16;50.70
13387;BME280;6763;48.524;9.044;2023-05-23T07:02:09;97753.59;;;24.16;50.67
13387;BME280;6763;48.524;9.044;2023-05-23T07:04:34;97759.09;;;24.13;50.52
13387;BME280;6763;48.524;9.044;2023-05-23T07:06:59;97758.16;;;24.14;50.86
13387;BME280;6763;48.524;9.044;2023-05-23T07:09:25;97759.84;;;24.15;50.46
13387;BME280;6763;48.524;9.044;2023-05-23T07:11:50;97762.00;;;24.10;50.17
13387;BME280;6763;48.524;9.044;2023-05-23T07:14:15;97763.34;;;24.02;50.46
13387;BME280;6763;48.524;9.044;2023-05-23T07:16:41;97768.75;;;24.01;50.49
13387;BME280;6763;48.524;9.044;2023-05-23T07:19:06;97766.31;;;23.98;50.65
13387;BME280;6763;48.524;9.044;2023-05-23T07:21:31;97769.09;;;23.96;50.20
13387;BME280;6763;48.524;9.044;2023-05-23T07:23:57;97769.31;;;23.93;49.77
13387;BME280;6763;48.524;9.044;2023-05-23T07:26:22;97771.09;;;23.93;49.92
13387;BME280;6763;48.524;9.044;2023-05-23T07:28:48;97773.88;;;23.91;50.02
13387;BME280;6763;48.524;9.044;2023-05-23T07:31:14;97769.88;;;23.86;49.95
13387;BME280;6763;48.524;9.044;2023-05-23T07:33:39;97774.31;;;23.85;49.95
13387;BME280;6763;48.524;9.044;2023-05-23T07:36:05;97782.97;;;23.87;50.21
13387;BME280;6763;48.524;9.044;2023-05-23T07:38:30;97784.66;;;23.88;50.05
13387;BME280;6763;48.524;9.044;2023-05-23T07:40:55;97786.47;;;23.88;50.18
13387;BME280;6763;48.524;9.044;2023-05-23T07:43:21;97792.19;;;23.82;50.13
13387;BME280;6763;48.524;9.044;2023-05-23T07:45:46;97790.09;;;23.74;49.76
13387;BME280;6763;48.524;9.044;2023-05-23T07:48:11;97786.53;;;23.63;49.90
13387;BME280;6763;48.524;9.044;2023-05-23T07:50:39;97794.38;;;23.52;50.07
13387;BME280;6763;48.524;9.044;2023-05-23T07:53:04;97789.72;;;23.42;50.48
13387;BME280;6763;48.524;9.044;2023-05-23T07:55:30;97789.19;;;23.37;50.57
13387;BME280;6763;48.524;9.044;2023-05-23T07:57:56;97791.84;;;23.37;50.36
13387;BME280;6763;48.524;9.044;2023-05-23T08:00:21;97797.19;;;23.36;50.58
13387;BME280;6763;48.524;9.044;2023-05-23T08:02:46;97788.44;;;23.35;50.66
13387;BME280;6763;48.524;9.044;2023-05-23T08:05:12;97805.13;;;23.23;50.98
13387;BME280;6763;48.524;9.044;2023-05-23T08:07:37;97802.78;;;23.06;50.79
13387;BME280;6763;48.524;9.044;2023-05-23T08:10:03;97800.25;;;22.92;51.27
13387;BME280;6763;48.524;9.044;2023-05-23T08:12:28;97805.94;;;22.73;51.64
13387;BME280;6763;48.524;9.044;2023-05-23T08:14:53;97802.56;;;22.71;51.61
13387;BME280;6763;48.524;9.044;2023-05-23T08:17:19;97814.78;;;22.72;51.54
13387;BME280;6763;48.524;9.044;2023-05-23T08:19:44;97808.56;;;22.73;51.17
13387;BME280;6763;48.524;9.044;2023-05-23T08:22:10;97811.00;;;22.76;50.87
13387;BME280;6763;48.524;9.044;2023-05-23T08:24:35;97810.16;;;22.76;50.67
13387;BME280;6763;48.524;9.044;2023-05-23T08:27:00;97815.88;;;22.82;50.61
13387;BME280;6763;48.524;9.044;2023-05-23T08:29:26;97819.69;;;22.91;49.87
13387;BME280;6763;48.524;9.044;2023-05-23T08:31:52;97821.06;;;22.97;49.54
13387;BME280;6763;48.524;9.044;2023-05-23T08:34:17;97830.16;;;23.05;49.26
13387;BME280;6763;48.524;9.044;2023-05-23T08:36:43;97833.94;;;23.14;48.60
13387;BME280;6763;48.524;9.044;2023-05-23T08:39:08;97823.31;;;23.28;48.04
13387;BME280;6763;48.524;9.044;2023-05-23T08:41:34;97828.06;;;23.48;47.64
13387;BME280;6763;48.524;9.044;2023-05-23T08:43:59;97824.97;;;23.79;47.02
13387;BME280;6763;48.524;9.044;2023-05-23T08:46:25;97827.03;;;23.99;46.58
13387;BME280;6763;48.524;9.044;2023-05-23T08:48:52;97835.06;;;24.11;45.72
13387;BME280;6763;48.524;9.044;2023-05-23T08:51:21;97846.50;;;24.11;45.77
13387;BME280;6763;48.524;9.044;2023-05-23T08:53:47;97843.75;;;24.00;45.73
13387;BME280;6763;48.524;9.044;2023-05-23T08:56:14;97838.16;;;23.92;45.73
13387;BME280;6763;48.524;9.044;2023-05-23T08:58:40;97838.81;;;23.83;46.00
13387;BME280;6763;48.524;9.044;2023-05-23T09:01:07;97843.38;;;23.81;46.21
13387;BME280;6763;48.524;9.044;2023-05-23T09:03:34;97847.28;;;23.88;46.04
13387;BME280;6763;48.524;9.044;2023-05-23T09:06:02;97856.22;;;23.98;45.89
13387;BME280;6763;48.524;9.044;2023-05-23T09:08:27;97865.41;;;24.05;45.36
13387;BME280;6763;48.524;9.044;2023-05-23T09:10:53;97863.75;;;24.04;45.54
13387;BME280;6763;48.524;9.044;2023-05-23T09:13:19;97868.19;;;24.03;45.42
13387;BME280;6763;48.524;9.044;2023-05-23T09:16:07;97869.13;;;24.02;44.65
13387;BME280;6763;48.524;9.044;2023-05-23T09:18:37;97870.72;;;23.92;44.37
13387;BME280;6763;48.524;9.044;2023-05-23T09:21:03;97873.81;;;23.74;44.33
13387;BME280;6763;48.524;9.044;2023-05-23T09:23:32;97873.94;;;23.60;44.50
13387;BME280;6763;48.524;9.044;2023-05-23T09:26:08;97878.06;;;23.64;44.49
13387;BME280;6763;48.524;9.044;2023-05-23T09:28:36;97882.72;;;23.73;44.10
13387;BME280;6763;48.524;9.044;2023-05-23T09:31:04;97880.38;;;23.81;43.57
13387;BME280;6763;48.524;9.044;2023-05-23T09:36:04;97885.09;;;24.01;42.66
13387;BME280;6763;48.524;9.044;2023-05-23T09:38:30;97890.59;;;23.98;42.15
13387;BME280;6763;48.524;9.044;2023-05-23T09:40:57;97885.53;;;23.95;41.93
13387;BME280;6763;48.524;9.044;2023-05-23T09:43:23;97884.06;;;23.91;42.31
13387;BME280;6763;48.524;9.044;2023-05-23T09:45:48;97884.50;;;23.85;41.89
13387;BME280;6763;48.524;9.044;2023-05-23T09:48:13;97891.47;;;23.86;42.06
13387;BME280;6763;48.524;9.044;2023-05-23T09:50:39;97882.56;;;23.87;41.82
13387;BME280;6763;48.524;9.044;2023-05-23T09:53:04;97885.88;;;23.90;41.57
13387;BME280;6763;48.524;9.044;2023-05-23T09:55:30;97886.25;;;23.97;41.53
13387;BME280;6763;48.524;9.044;2023-05-23T09:57:58;97888.38;;;24.04;41.31
13387;BME280;6763;48.524;9.044;2023-05-23T10:00:24;97890.06;;;24.05;41.43
13387;BME280;6763;48.524;9.044;2023-05-23T10:05:48;97886.38;;;24.08;41.31
13387;BME280;6763;48.524;9.044;2023-05-23T10:08:29;97889.47;;;24.15;41.12
13387;BME280;6763;48.524;9.044;2023-05-23T10:13:24;97882.84;;;24.33;40.73
13387;BME280;6763;48.524;9.044;2023-05-23T10:15:54;97886.31;;;24.33;40.63
13387;BME280;6763;48.524;9.044;2023-05-23T10:18:25;97887.22;;;24.45;40.75
13387;BME280;6763;48.524;9.044;2023-05-23T10:20:56;97886.09;;;24.60;40.54
13387;BME280;6763;48.524;9.044;2023-05-23T10:23:24;97884.22;;;24.86;40.31
13387;BME280;6763;48.524;9.044;2023-05-23T10:25:50;97889.75;;;25.17;39.61
13387;BME280;6763;48.524;9.044;2023-05-23T10:28:16;97890.75;;;25.39;39.22
13387;BME280;6763;48.524;9.044;2023-05-23T10:30:41;97884.47;;;25.40;38.96
13387;BME280;6763;48.524;9.044;2023-05-23T10:33:07;97890.16;;;25.35;38.68
13387;BME280;6763;48.524;9.044;2023-05-23T10:35:55;97888.47;;;25.34;38.45
13387;BME280;6763;48.524;9.044;2023-05-23T10:41:15;97872.28;;;25.83;37.54
13387;BME280;6763;48.524;9.044;2023-05-23T10:43:49;97874.69;;;26.08;36.73
13387;BME280;6763;48.524;9.044;2023-05-23T10:46:19;97880.97;;;26.29;36.08
13387;BME280;6763;48.524;9.044;2023-05-23T10:48:45;97883.69;;;26.50;36.14
13387;BME280;6763;48.524;9.044;2023-05-23T10:51:12;97883.06;;;26.58;35.58
13387;BME280;6763;48.524;9.044;2023-05-23T10:53:43;97881.75;;;26.41;35.95
13387;BME280;6763;48.524;9.044;2023-05-23T10:56:13;97879.88;;;26.21;36.37
13387;BME280;6763;48.524;9.044;2023-05-23T10:58:43;97880.72;;;26.21;36.63
13387;BME280;6763;48.524;9.044;2023-05-23T11:01:12;97880.47;;;26.24;36.79
13387;BME280;6763;48.524;9.044;2023-05-23T11:06:41;97877.66;;;26.48;36.12
13387;BME280;6763;48.524;9.044;2023-05-23T11:09:12;97877.88;;;26.56;36.05
13387;BME280;6763;48.524;9.044;2023-05-23T11:11:51;97880.63;;;26.66;35.73
13387;BME280;6763;48.524;9.044;2023-05-23T11:14:16;97875.88;;;26.80;35.36
13387;BME280;6763;48.524;9.044;2023-05-23T11:16:43;97867.94;;;27.01;35.14
13387;BME280;6763;48.524;9.044;2023-05-23T11:21:52;97868.50;;;27.57;34.26
13387;BME280;6763;48.524;9.044;2023-05-23T11:24:18;97873.78;;;27.78;33.25
13387;BME280;6763;48.524;9.044;2023-05-23T11:26:59;97863.59;;;27.92;33.07
13387;BME280;6763;48.524;9.044;2023-05-23T11:29:26;97865.97;;;27.86;32.42
13387;BME280;6763;48.524;9.044;2023-05-23T11:31:53;97866.03;;;27.65;32.85
13387;BME280;6763;48.524;9.044;2023-05-23T11:34:19;97864.53;;;27.51;33.15
13387;BME280;6763;48.524;9.044;2023-05-23T11:36:45;97857.19;;;27.64;33.51
13387;BME280;6763;48.524;9.044;2023-05-23T11:39:12;97867.34;;;27.80;32.58
13387;BME280;6763;48.524;9.044;2023-05-23T11:41:37;97866.94;;;27.54;32.83
13387;BME280;6763;48.524;9.044;2023-05-23T11:44:10;97867.00;;;27.23;32.61
13387;BME280;6763;48.524;9.044;2023-05-23T11:46:36;97868.34;;;26.96;33.29
13387;BME280;6763;48.524;9.044;2023-05-23T11:49:01;97866.53;;;27.18;33.02
13387;BME280;6763;48.524;9.044;2023-05-23T11:51:27;97851.88;;;27.64;32.37
13387;BME280;6763;48.524;9.044;2023-05-23T11:53:52;97848.53;;;28.02;32.23
13387;BME280;6763;48.524;9.044;2023-05-23T11:56:18;97843.59;;;27.98;31.86
13387;BME280;6763;48.524;9.044;2023-05-23T11:58:43;97853.34;;;27.78;32.58
13387;BME280;6763;48.524;9.044;2023-05-23T12:01:11;97849.59;;;27.90;31.91
13387;BME280;6763;48.524;9.044;2023-05-23T12:03:50;97849.78;;;27.98;32.01
13387;BME280;6763;48.524;9.044;2023-05-23T12:06:23;97853.63;;;27.85;31.95
13387;BME280;6763;48.524;9.044;2023-05-23T12:08:50;97848.84;;;27.79;32.50
13387;BME280;6763;48.524;9.044;2023-05-23T12:11:16;97853.50;;;27.56;32.16
13387;BME280;6763;48.524;9.044;2023-05-23T12:13:42;97843.97;;;27.33;32.08
13387;BME280;6763;48.524;9.044;2023-05-23T12:16:09;97851.00;;;27.13;32.86
13387;BME280;6763;48.524;9.044;2023-05-23T12:18:37;97854.72;;;26.90;32.97
13387;BME280;6763;48.524;9.044;2023-05-23T12:21:03;97848.22;;;26.83;33.15
13387;BME280;6763;48.524;9.044;2023-05-23T12:23:30;97858.97;;;26.81;33.29
13387;BME280;6763;48.524;9.044;2023-05-23T12:25:56;97850.19;;;27.01;33.36
13387;BME280;6763;48.524;9.044;2023-05-23T12:31:10;97848.63;;;27.20;32.64
13387;BME280;6763;48.524;9.044;2023-05-23T12:33:40;97850.69;;;27.16;32.54
13387;BME280;6763;48.524;9.044;2023-05-23T12:36:08;97857.66;;;27.28;32.46
13387;BME280;6763;48.524;9.044;2023-05-23T12:38:33;97854.66;;;27.22;31.69
13387;BME280;6763;48.524;9.044;2023-05-23T12:41:14;97851.44;;;26.97;32.12
13387;BME280;6763;48.524;9.044;2023-05-23T12:43:47;97853.91;;;26.78;31.95
13387;BME280;6763;48.524;9.044;2023-05-23T12:46:13;97848.13;;;26.73;31.79
13387;BME280;6763;48.524;9.044;2023-05-23T12:48:39;97841.16;;;26.93;31.70
13387;BME280;6763;48.524;9.044;2023-05-23T12:51:05;97843.66;;;27.47;31.05
13387;BME280;6763;48.524;9.044;2023-05-23T12:53:30;97844.16;;;27.61;30.74
13387;BME280;6763;48.524;9.044;2023-05-23T12:55:55;97833.19;;;27.55;31.25
13387;BME280;6763;48.524;9.044;2023-05-23T12:58:21;97841.13;;;27.45;31.15
13387;BME280;6763;48.524;9.044;2023-05-23T13:00:46;97833.47;;;27.31;31.80
13387;BME280;6763;48.524;9.044;2023-05-23T13:03:12;97839.25;;;27.36;31.64
13387;BME280;6763;48.524;9.044;2023-05-23T13:05:37;97839.13;;;27.68;31.08
13387;BME280;6763;48.524;9.044;2023-05-23T13:08:03;97844.94;;;28.13;30.19
13387;BME280;6763;48.524;9.044;2023-05-23T13:10:28;97832.00;;;28.58;29.63
13387;BME280;6763;48.524;9.044;2023-05-23T13:12:53;97823.47;;;28.83;29.19
13387;BME280;6763;48.524;9.044;2023-05-23T13:15:19;97836.09;;;28.81;29.36
13387;BME280;6763;48.524;9.044;2023-05-23T13:17:45;97818.84;;;28.75;28.62
13387;BME280;6763;48.524;9.044;2023-05-23T13:20:11;97820.66;;;28.94;28.78
13387;BME280;6763;48.524;9.044;2023-05-23T13:22:38;97826.91;;;29.50;28.34
13387;BME280;6763;48.524;9.044;2023-05-23T13:25:04;97823.81;;;29.92;27.35
13387;BME280;6763;48.524;9.044;2023-05-23T13:27:30;97835.03;;;29.95;27.10
13387;BME280;6763;48.524;9.044;2023-05-23T13:29:55;97816.91;;;29.62;27.46
13387;BME280;6763;48.524;9.044;2023-05-23T13:32:20;97832.59;;;29.28;27.76
13387;BME280;6763;48.524;9.044;2023-05-23T13:34:46;97834.28;;;28.91;28.04
13387;BME280;6763;48.524;9.044;2023-05-23T13:37:11;97848.09;;;28.56;28.71
13387;BME280;6763;48.524;9.044;2023-05-23T13:39:36;97835.25;;;28.12;28.47
13387;BME280;6763;48.524;9.044;2023-05-23T13:42:02;97833.25;;;27.64;29.19
13387;BME280;6763;48.524;9.044;2023-05-23T13:44:27;97829.53;;;27.46;29.32
13387;BME280;6763;48.524;9.044;2023-05-23T13:46:53;97834.25;;;27.43;29.43
13387;BME280;6763;48.524;9.044;2023-05-23T13:49:19;97825.56;;;27.41;29.39
13387;BME280;6763;48.524;9.044;2023-05-23T13:51:44;97825.81;;;27.38;28.81
13387;BME280;6763;48.524;9.044;2023-05-23T13:54:10;97830.94;;;27.50;28.84